Flight Track Log - Related Links

Times and Time Zones

All times are in EDT time to prevent confusion due to time zone crossing. See the UPS214 flight status page for this flight to view local times or setup timezone preferences in your user account.

Time Position Orientation Groundspeed Altitude Reporting Facility
EDT Latitude Longitude Course Direction KTS MPH feet Rate Location/Type
Thu 05:05:00 PM 55.5401 -14.7940 298° West  Level Estimated
Thu 05:05:18 PM 54.0270 -15.3850 298° West 477 549 32,000  Level FlightAware ADS-B
Thu 05:05:55 PM 54.0380 -15.5010 279° West 477 549 32,000  Level FlightAware ADS-B
Thu 05:06:56 PM 54.0560 -15.6940 279° West 477 549 32,000  Level FlightAware ADS-B
Thu 05:07:30 PM 54.0660 -15.8010 279° West 477 549 32,000  Level FlightAware ADS-B
Thu 05:08:32 PM 54.0840 -15.9970 279° West 477 549 32,000  Level FlightAware ADS-B
Thu 05:09:20 PM 54.0980 -16.1490 279° West 477 549 32,000  Level FlightAware ADS-B
Thu 05:09:56 PM 54.1090 -16.2620 279° West 477 549 32,000 -6 Level FlightAware ADS-B
Thu 05:12:00 PM 54.1570 -16.7035 281° West  Level Estimated
Thu 05:13:00 PM 54.1797 -16.9175 280° West  Level Estimated
Thu 05:14:00 PM 54.2019 -17.1317 280° West  Level Estimated
Thu 05:15:00 PM 54.2238 -17.3461 280° West  Level Estimated
Thu 05:16:00 PM 54.2453 -17.5608 280° West  Level Estimated
Thu 05:17:00 PM 54.2665 -17.7757 280° West  Level Estimated
Thu 05:18:00 PM 54.2872 -17.9908 279° West  Level Estimated
Thu 05:19:00 PM 54.3076 -18.2062 279° West  Level Estimated
Thu 05:20:00 PM 54.3275 -18.4217 279° West  Level Estimated
Thu 05:21:00 PM 54.3471 -18.6374 279° West  Level Estimated
Thu 05:22:00 PM 54.3663 -18.8534 279° West  Level Estimated
Thu 05:23:00 PM 54.3852 -19.0695 279° West  Level Estimated
Thu 05:24:00 PM 54.4036 -19.2859 278° West  Level Estimated
Thu 05:25:00 PM 54.4216 -19.5024 278° West  Level Estimated
Thu 05:25:00 PM 55.0000 -20.0000 294° West 496 571 31,900  Level ETMS Enhanced Traffic Management System
Thu 05:26:00 PM 54.4393 -19.7192 278° West  Level Estimated
Thu 05:27:00 PM 54.4566 -19.9361 278° West  Level Estimated
Thu 05:28:00 PM 54.4735 -20.1532 278° West  Level Estimated
Thu 05:29:00 PM 54.4900 -20.3704 278° West  Level Estimated
Thu 05:30:00 PM 54.5061 -20.5879 277° West  Level Estimated
Thu 05:31:00 PM 55.3796 -21.5556 293° West 496 571 31,900  Level FlightAware Transoceanic
Thu 05:32:00 PM 55.4322 -21.7802 292° West 496 571 31,900  Level FlightAware Transoceanic
Thu 05:33:00 PM 55.4844 -22.0054 292° West 496 571 31,900  Level FlightAware Transoceanic
Thu 05:34:00 PM 55.5362 -22.2313 292° West 496 571 31,900  Level FlightAware Transoceanic
Thu 05:35:00 PM 55.5875 -22.4577 292° West 496 571 31,900  Level FlightAware Transoceanic
Thu 05:36:00 PM 55.6384 -22.6847 292° West 496 571 31,900  Level FlightAware Transoceanic
Thu 05:37:00 PM 55.6890 -22.9123 291° West 496 571 31,900  Level FlightAware Transoceanic
Thu 05:38:00 PM 55.7391 -23.1405 291° West 496 571 31,900  Level FlightAware Transoceanic
Thu 05:39:00 PM 55.7887 -23.3692 291° West 496 571 31,900  Level FlightAware Transoceanic
Thu 05:40:00 PM 55.8380 -23.5986 291° West 496 571 31,900  Level FlightAware Transoceanic
Thu 05:41:00 PM 55.8868 -23.8285 291° West 496 571 31,900  Level FlightAware Transoceanic
Thu 05:42:00 PM 55.9352 -24.0590 290° West 496 571 31,900  Level FlightAware Transoceanic
Thu 05:43:00 PM 55.9831 -24.2901 290° West 496 571 31,900  Level FlightAware Transoceanic
Thu 05:44:00 PM 56.0307 -24.5217 290° West 496 571 31,900  Level FlightAware Transoceanic
Thu 05:45:00 PM 56.0778 -24.7540 290° West 496 571 31,900  Level FlightAware Transoceanic
Thu 05:46:00 PM 56.1244 -24.9867 290° West 496 571 31,900  Level FlightAware Transoceanic
Thu 05:47:00 PM 56.1706 -25.2201 289° West 496 571 31,900  Level FlightAware Transoceanic
Thu 05:48:00 PM 56.2164 -25.4540 289° West 496 571 31,900  Level FlightAware Transoceanic
Thu 05:49:00 PM 56.2617 -25.6885 289° West 496 571 31,900  Level FlightAware Transoceanic
Thu 05:50:00 PM 56.3066 -25.9235 289° West 496 571 31,900  Level FlightAware Transoceanic
Thu 05:51:00 PM 56.3510 -26.1590 289° West 496 571 31,900  Level FlightAware Transoceanic
Thu 05:52:00 PM 56.3950 -26.3952 288° West 496 571 31,900  Level FlightAware Transoceanic
Thu 05:53:00 PM 56.4386 -26.6318 288° West 496 571 31,900  Level FlightAware Transoceanic
Thu 05:54:00 PM 56.4817 -26.8690 288° West 496 571 31,900  Level FlightAware Transoceanic
Thu 05:55:00 PM 56.5243 -27.1068 288° West 496 571 31,900  Level FlightAware Transoceanic
Thu 05:56:00 PM 56.5665 -27.3450 288° West 496 571 31,900  Level FlightAware Transoceanic
Thu 05:57:00 PM 56.6082 -27.5838 288° West 496 571 31,900  Level FlightAware Transoceanic
Thu 05:58:00 PM 56.6495 -27.8231 287° West 496 571 31,900  Level FlightAware Transoceanic
Thu 05:59:00 PM 56.6903 -28.0630 287° West 496 571 31,900  Level FlightAware Transoceanic
Thu 06:00:00 PM 56.7306 -28.3033 287° West 496 571 31,900  Level FlightAware Transoceanic
Thu 06:01:00 PM 56.7705 -28.5442 287° West 496 571 31,900  Level FlightAware Transoceanic
Thu 06:02:00 PM 56.8099 -28.7856 287° West 496 571 31,900  Level FlightAware Transoceanic
Thu 06:03:00 PM 56.8489 -29.0275 286° West 496 571 31,900  Level FlightAware Transoceanic
Thu 06:04:00 PM 56.8874 -29.2699 286° West 496 571 31,900  Level FlightAware Transoceanic
Thu 06:05:00 PM 56.9254 -29.5128 286° West 496 571 31,900  Level FlightAware Transoceanic
Thu 06:06:00 PM 56.9629 -29.7561 286° West 496 571 31,900 23 Level FlightAware Transoceanic
Thu 06:07:00 PM 56.9972 -29.9811 286° West  Level FlightAware Approximate
Thu 06:08:00 PM 57.0310 -30.2066 286° West  Level FlightAware Approximate
Thu 06:09:00 PM 57.0265 -30.1885 285° West  Level FlightAware Approximate
Thu 06:10:00 PM 57.0579 -30.4153 284° West  Level FlightAware Approximate
Thu 06:11:00 PM 57.0888 -30.6424 284° West  Level FlightAware Approximate
Thu 06:12:00 PM 57.1194 -30.8700 284° West  Level FlightAware Approximate
Thu 06:13:00 PM 57.1496 -31.0979 284° West  Level FlightAware Approximate
Thu 06:14:00 PM 57.1793 -31.3261 284° West  Level FlightAware Approximate
Thu 06:15:00 PM 57.2087 -31.5548 283° West  Level FlightAware Approximate
Thu 06:16:00 PM 57.2376 -31.7838 283° West  Level FlightAware Approximate
Thu 06:17:00 PM 57.2661 -32.0131 283° West  Level FlightAware Approximate
Thu 06:18:00 PM 57.2942 -32.2428 283° West  Level FlightAware Approximate
Thu 06:19:00 PM 57.3218 -32.4729 283° West  Level FlightAware Approximate
Thu 06:20:00 PM 57.3491 -32.7033 282° West  Level FlightAware Approximate
Thu 06:21:00 PM 57.3759 -32.9340 282° West  Level FlightAware Approximate
Thu 06:22:00 PM 57.4023 -33.1651 282° West  Level FlightAware Approximate
Thu 06:23:00 PM 57.4283 -33.3965 282° West  Level FlightAware Approximate
Thu 06:24:00 PM 57.4538 -33.6282 282° West  Level FlightAware Approximate
Thu 06:25:00 PM 57.4790 -33.8603 281° West  Level FlightAware Approximate
Thu 06:26:00 PM 57.5037 -34.0927 281° West  Level FlightAware Approximate
Thu 06:27:00 PM 57.5283 -34.3252 281° West  Level FlightAware Approximate
Thu 06:28:00 PM 57.5529 -34.5579 281° West  Level FlightAware Approximate
Thu 06:29:00 PM 57.5771 -34.7909 281° West  Level FlightAware Approximate
Thu 06:30:00 PM 57.6009 -35.0243 281° West  Level FlightAware Approximate
Thu 06:31:00 PM 57.6242 -35.2579 281° West  Level FlightAware Approximate
Thu 06:32:00 PM 57.6471 -35.4918 280° West  Level FlightAware Approximate
Thu 06:33:00 PM 57.6696 -35.7261 280° West  Level FlightAware Approximate
Thu 06:34:00 PM 57.6916 -35.9606 280° West  Level FlightAware Approximate
Thu 06:35:00 PM 57.7132 -36.1954 280° West  Level FlightAware Approximate
Thu 06:36:00 PM 57.7344 -36.4304 280° West  Level FlightAware Approximate
Thu 06:37:00 PM 57.7551 -36.6658 279° West  Level FlightAware Approximate
Thu 06:38:00 PM 57.7754 -36.9014 279° West  Level FlightAware Approximate
Thu 06:39:00 PM 57.7953 -37.1372 279° West  Level FlightAware Approximate
Thu 06:40:00 PM 57.8147 -37.3734 279° West  Level FlightAware Approximate
Thu 06:41:00 PM 57.8337 -37.6097 279° West  Level FlightAware Approximate
Thu 06:42:00 PM 57.8522 -37.8464 278° West  Level FlightAware Approximate
Thu 06:43:00 PM 57.8703 -38.0832 278° West  Level FlightAware Approximate
Thu 06:44:00 PM 57.8880 -38.3204 278° West  Level FlightAware Approximate
Thu 06:45:00 PM 57.9052 -38.5577 278° West  Level FlightAware Approximate
Thu 06:46:00 PM 57.9220 -38.7952 278° West  Level FlightAware Approximate
Thu 06:47:00 PM 57.9383 -39.0330 277° West  Level FlightAware Approximate
Thu 06:48:00 PM 57.9542 -39.2710 277° West  Level FlightAware Approximate
Thu 06:49:00 PM 57.9696 -39.5092 277° West  Level FlightAware Approximate
Thu 06:50:00 PM 57.9846 -39.7476 277° West  Level FlightAware Approximate
Thu 06:51:00 PM 57.9992 -39.9862 277° West  Level FlightAware Approximate
Thu 06:52:00 PM 57.9866 -40.2249 264° West  Level FlightAware Approximate
Thu 06:53:00 PM 57.9720 -40.4634 264° West  Level FlightAware Approximate
Thu 06:54:00 PM 57.9570 -40.7018 263° West  Level FlightAware Approximate
Thu 06:55:00 PM 57.9415 -40.9398 263° West  Level FlightAware Approximate
Thu 06:56:00 PM 57.9255 -41.1777 263° West  Level FlightAware Approximate
Thu 06:57:00 PM 57.9091 -41.4154 263° West  Level FlightAware Approximate
Thu 06:58:00 PM 57.8923 -41.6529 263° West  Level FlightAware Approximate
Thu 06:59:00 PM 57.8750 -41.8901 262° West  Level FlightAware Approximate
Thu 07:00:00 PM 57.8573 -42.1271 262° West  Level FlightAware Approximate
Thu 07:01:00 PM 57.8392 -42.3639 262° West  Level FlightAware Approximate
Thu 07:02:00 PM 57.8206 -42.6004 262° West  Level FlightAware Approximate
Thu 07:03:00 PM 57.8016 -42.8367 262° West  Level FlightAware Approximate
Thu 07:04:00 PM 57.7821 -43.0727 261° West  Level FlightAware Approximate
Thu 07:05:00 PM 57.7622 -43.3085 261° West  Level FlightAware Approximate
Thu 07:06:00 PM 57.7418 -43.5440 261° West  Level FlightAware Approximate
Thu 07:07:00 PM 57.7210 -43.7793 261° West  Level FlightAware Approximate
Thu 07:08:00 PM 57.6998 -44.0142 261° West  Level FlightAware Approximate
Thu 07:09:00 PM 57.6782 -44.2489 260° West  Level FlightAware Approximate
Thu 07:10:00 PM 57.6561 -44.4833 260° West  Level FlightAware Approximate
Thu 07:11:00 PM 57.6335 -44.7174 260° West  Level FlightAware Approximate
Thu 07:12:00 PM 57.6106 -44.9513 260° West  Level FlightAware Approximate
Thu 07:13:00 PM 57.5872 -45.1848 260° West  Level FlightAware Approximate
Thu 07:14:00 PM 57.5634 -45.4180 259° West  Level FlightAware Approximate
Thu 07:15:00 PM 57.5391 -45.6509 259° West  Level FlightAware Approximate
Thu 07:16:00 PM 57.5145 -45.8835 259° West  Level FlightAware Approximate
Thu 07:17:00 PM 57.4894 -46.1158 259° West  Level FlightAware Approximate
Thu 07:18:00 PM 57.4638 -46.3478 259° West  Level FlightAware Approximate
Thu 07:19:00 PM 57.4379 -46.5794 258° West  Level FlightAware Approximate
Thu 07:20:00 PM 57.4115 -46.8107 258° West  Level FlightAware Approximate
Thu 07:21:00 PM 57.3847 -47.0417 258° West  Level FlightAware Approximate
Thu 07:22:00 PM 57.3575 -47.2724 258° West  Level FlightAware Approximate
Thu 07:23:00 PM 57.3298 -47.5026 258° West  Level FlightAware Approximate
Thu 07:24:00 PM 57.3018 -47.7326 257° West  Level FlightAware Approximate
Thu 07:25:00 PM 57.2733 -47.9622 257° West  Level FlightAware Approximate
Thu 07:26:00 PM 57.2444 -48.1914 257° West  Level FlightAware Approximate
Thu 07:27:00 PM 57.2151 -48.4203 257° West  Level FlightAware Approximate
Thu 07:28:00 PM 57.1853 -48.6488 257° West  Level FlightAware Approximate
Thu 07:29:00 PM 57.1552 -48.8769 256° West  Level FlightAware Approximate
Thu 07:30:00 PM 57.1246 -49.1047 256° West  Level FlightAware Approximate
Thu 07:31:00 PM 57.0937 -49.3320 256° West  Level FlightAware Approximate
Thu 07:32:00 PM 57.0623 -49.5590 256° West  Level FlightAware Approximate
Thu 07:33:00 PM 57.0305 -49.7856 256° West  Level FlightAware Approximate
Thu 07:34:00 PM 56.9979 -50.0117 252° West  Level FlightAware Approximate
Thu 07:35:00 PM 56.9584 -50.2337 252° West  Level FlightAware Approximate
Thu 07:36:00 PM 56.9184 -50.4552 252° West  Level FlightAware Approximate
Thu 07:36:31 PM 57.0167 -50.0333 251° West 470 541 34,000  Level Gander Center
Thu 07:37:00 PM 56.8780 -50.6763 252° West  Level FlightAware Approximate
Thu 07:37:31 PM 56.9667 -50.2667 249° West 470 541 34,000  Level Gander Center
Thu 07:38:00 PM 56.8372 -50.8969 251° West  Level FlightAware Approximate
Thu 07:39:00 PM 56.7961 -51.1170 251° West  Level FlightAware Approximate
Thu 07:39:00 PM 56.9052 -50.5939 251° West  Level FlightAware Approximate
Thu 07:40:00 PM 56.7546 -51.3366 251° West  Level FlightAware Approximate
Thu 07:41:00 PM 56.7127 -51.5557 251° West  Level FlightAware Approximate
Thu 07:46:00 PM 56.6036 -52.1235 251° West  Level FlightAware Approximate
Thu 07:47:00 PM 56.5590 -52.3400 250° West  Level FlightAware Approximate
Thu 07:48:00 PM 56.5145 -52.5565 250° West  Level FlightAware Approximate
Thu 07:49:00 PM 56.4699 -52.7725 250° West  Level FlightAware Approximate
Thu 07:49:24 PM 56.4667 -52.9667 249° West 470 541 34,000  Level Gander Center
Thu 07:50:00 PM 56.4249 -52.9879 249° West  Level FlightAware Approximate
Thu 07:50:24 PM 56.4167 -53.1833 247° West 470 541 34,000  Level Gander Center
Thu 07:51:00 PM 56.3795 -53.2029 249° West  Level FlightAware Approximate
Thu 07:52:00 PM 56.3338 -53.4173 249° West  Level FlightAware Approximate
Thu 07:52:08 PM 56.3333 -53.5667 249° West 480 552 34,100  Level Gander Center
Thu 07:53:00 PM 56.2877 -53.6312 249° West  Level FlightAware Approximate
Thu 07:53:08 PM 56.2833 -53.7833 248° West 480 552 34,100  Level Gander Center
Thu 07:54:00 PM 56.2412 -53.8446 249° West  Level FlightAware Approximate
Thu 07:54:08 PM 56.2333 -54.0333 250° West 480 552 34,000  Level Gander Center
Thu 07:55:08 PM 56.2000 -54.2500 255° West 480 552 34,000  Level Gander Center
Thu 07:56:08 PM 56.1333 -54.4667 241° Southwest 480 552 34,000  Level Gander Center
Thu 07:58:00 PM 56.0402 -54.8631 247° West  Level FlightAware Approximate
Thu 08:01:51 PM 55.8500 -55.7333 246° West 480 552 34,000  Level Moncton Center
Thu 08:02:24 PM 55.8167 -55.8667 246° West 480 552 34,000  Level Gander Center
Thu 08:03:24 PM 55.7667 -56.0500 244° Southwest 480 552 34,000  Level Gander Center
Thu 08:04:24 PM 55.6667 -56.2500 228° Southwest 480 552 34,000  Level Gander Center
Thu 08:05:00 PM 55.6798 -56.3325 247° West  Level FlightAware Approximate
Thu 08:05:24 PM 55.5833 -56.4333 231° Southwest 480 552 34,000  Level Gander Center
Thu 08:06:00 PM 55.6269 -56.5401 246° West  Level FlightAware Approximate
Thu 08:06:24 PM 55.5000 -56.6167 231° Southwest 480 552 34,000  Level Gander Center
Thu 08:07:00 PM 55.5736 -56.7472 246° West  Level FlightAware Approximate
Thu 08:07:24 PM 55.4167 -56.7833 229° Southwest 480 552 34,000  Level Gander Center
Thu 08:08:24 PM 55.3500 -57.0000 242° Southwest 480 552 34,000  Level Gander Center
Thu 08:09:24 PM 55.2667 -57.1500 226° Southwest 470 541 34,000  Level Gander Center
Thu 08:10:24 PM 55.1667 -57.3667 231° Southwest 470 541 34,000  Level Gander Center
Thu 08:11:24 PM 55.1000 -57.5167 232° Southwest 470 541 34,000  Level Gander Center
Thu 08:12:24 PM 55.0167 -57.7000 232° Southwest 470 541 34,000 -50 Level Gander Center
Thu 08:13:24 PM 54.9333 -57.8833 232° Southwest 470 541 33,900  Descending Gander Center
Thu 08:14:24 PM 54.8500 -58.0333 226° Southwest 470 541 34,000 50 Climbing Gander Center
Thu 08:15:24 PM 54.7667 -58.2333 234° Southwest 470 541 34,000  Level Gander Center
Thu 08:16:24 PM 54.6833 -58.3833 226° Southwest 460 529 34,000 -50 Level Gander Center
Thu 08:17:24 PM 54.6000 -58.5667 232° Southwest 460 529 33,900  Descending Gander Center
Thu 08:18:24 PM 54.5167 -58.7500 232° Southwest 460 529 34,000 100 Climbing Gander Center
Thu 08:19:24 PM 54.4500 -58.9000 233° Southwest 460 529 34,100  Climbing Gander Center
Thu 08:20:24 PM 54.3500 -59.0667 224° Southwest 470 541 34,000 -50 Descending Gander Center
Thu 08:21:24 PM 54.2667 -59.2500 232° Southwest 470 541 34,000  Level Gander Center
Thu 08:22:24 PM 54.1833 -59.4333 232° Southwest 470 541 34,000  Level Gander Center
Thu 08:23:24 PM 54.1000 -59.6000 230° Southwest 470 541 34,000  Level Gander Center
Thu 08:24:24 PM 54.0000 -59.7667 224° Southwest 470 541 34,000  Level Gander Center
Thu 08:25:24 PM 53.9167 -59.9167 227° Southwest 470 541 34,000  Level Gander Center
Thu 08:26:24 PM 53.8333 -60.1000 232° Southwest 480 552 34,000  Level Gander Center
Thu 08:27:24 PM 53.7667 -60.2667 236° Southwest 470 541 34,000  Level Gander Center
Thu 08:28:24 PM 53.6667 -60.4333 225° Southwest 470 541 34,000  Level Gander Center
Thu 08:29:24 PM 53.5833 -60.6000 230° Southwest 470 541 34,000  Level Gander Center
Thu 08:30:24 PM 53.5000 -60.7833 233° Southwest 460 529 34,000 -50 Level Gander Center
Thu 08:31:24 PM 53.4167 -60.9167 224° Southwest 460 529 33,900  Descending Gander Center
Thu 08:32:24 PM 53.3333 -61.0833 230° Southwest 460 529 34,000 50 Climbing Gander Center
Thu 08:33:24 PM 53.2500 -61.2500 230° Southwest 460 529 34,000  Level Gander Center
Thu 08:34:24 PM 53.1667 -61.4000 227° Southwest 460 529 34,000  Level Gander Center
Thu 08:35:24 PM 53.0667 -61.5667 225° Southwest 470 541 34,000  Level Gander Center
Thu 08:36:24 PM 52.9833 -61.7333 230° Southwest 470 541 34,000  Level Gander Center
Thu 08:37:24 PM 52.9000 -61.9000 230° Southwest 470 541 34,000  Level Gander Center
Thu 08:38:24 PM 52.8167 -62.0500 227° Southwest 470 541 34,000  Level Gander Center
Thu 08:39:24 PM 52.7167 -62.2167 225° Southwest 460 529 34,000  Level Gander Center
Thu 08:40:24 PM 52.6333 -62.3500 224° Southwest 460 529 34,000  Level Gander Center
Thu 08:41:24 PM 52.5333 -62.5167 225° Southwest 460 529 34,000  Level Gander Center
Thu 08:42:24 PM 52.4500 -62.6833 231° Southwest 460 529 34,000  Level Gander Center
Thu 08:43:24 PM 52.3667 -62.8167 224° Southwest 470 541 34,000  Level Gander Center
Thu 08:44:24 PM 52.2833 -62.9833 231° Southwest 470 541 34,000  Level Gander Center
Thu 08:45:24 PM 52.2000 -63.1333 228° Southwest 460 529 34,000  Level Gander Center
Thu 08:46:24 PM 52.1167 -63.3000 231° Southwest 460 529 34,000  Level Gander Center
Thu 08:47:24 PM 52.0167 -63.4333 219° Southwest 450 518 34,000  Level Gander Center
Thu 08:48:24 PM 51.9333 -63.5833 228° Southwest 450 518 34,000  Level Gander Center
Thu 08:49:24 PM 51.8500 -63.7500 231° Southwest 460 529 34,000  Level Gander Center
Thu 08:50:24 PM 51.7667 -63.8833 225° Southwest 460 529 34,000  Level Gander Center
Thu 08:51:24 PM 51.6667 -64.0333 223° Southwest 460 529 34,000  Level Gander Center
Thu 08:52:24 PM 51.5667 -64.1833 223° Southwest 460 529 34,000  Level Gander Center
Thu 08:53:24 PM 51.4833 -64.3167 225° Southwest 460 529 34,000  Level Gander Center
Thu 08:54:24 PM 51.4000 -64.4667 228° Southwest 450 518 34,000 -50 Level Gander Center
Thu 08:55:24 PM 51.3167 -64.6333 231° Southwest 440 506 33,900  Descending Gander Center
Thu 08:56:24 PM 51.2167 -64.7500 216° Southwest 440 506 34,000 50 Climbing Gander Center
Thu 08:57:24 PM 51.1500 -64.8833 231° Southwest 440 506 34,000  Level Gander Center
Thu 08:58:24 PM 51.0667 -65.0333 229° Southwest 440 506 34,000  Level Gander Center
Thu 08:59:24 PM 50.9667 -65.1667 220° Southwest 440 506 34,000  Level Gander Center
Thu 09:00:24 PM 50.8833 -65.3167 229° Southwest 440 506 34,000  Level Gander Center
Thu 09:01:24 PM 50.8000 -65.4333 222° Southwest 440 506 34,000  Level Gander Center
Thu 09:02:24 PM 50.7167 -65.5833 229° Southwest 440 506 34,000  Level Gander Center
Thu 09:03:24 PM 50.6167 -65.7167 220° Southwest 440 506 34,000  Level Gander Center
Thu 09:04:24 PM 50.5333 -65.8667 229° Southwest 450 518 34,000  Level Gander Center
Thu 09:05:21 PM 50.4500 -65.9333 207° Southwest 440 506 34,000  Level Montreal Center
Thu 09:06:21 PM 50.3500 -66.0833 224° Southwest 440 506 34,000 -50 Level Montreal Center
Thu 09:07:21 PM 50.2833 -66.2000 228° Southwest 430 495 33,900  Descending Montreal Center
Thu 09:08:21 PM 50.1833 -66.3500 224° Southwest 430 495 34,000 50 Climbing Montreal Center
Thu 09:09:21 PM 50.1000 -66.4833 226° Southwest 430 495 34,000  Level Montreal Center
Thu 09:10:21 PM 50.0000 -66.6000 217° Southwest 440 506 34,000  Level Montreal Center
Thu 09:11:21 PM 49.9167 -66.7500 229° Southwest 440 506 34,000  Level Montreal Center
Thu 09:12:21 PM 49.8500 -66.8667 228° Southwest 430 495 34,000 -50 Level Montreal Center
Thu 09:13:21 PM 49.7500 -67.0000 221° Southwest 430 495 33,900  Descending Montreal Center
Thu 09:14:21 PM 49.6667 -67.1167 222° Southwest 430 495 34,000 50 Climbing Montreal Center
Thu 09:15:20 PM 49.5667 -67.2333 217° Southwest 430 495 34,000  Level Montreal Center
Thu 09:16:20 PM 49.4833 -67.3833 229° Southwest 430 495 34,000  Level Montreal Center
Thu 09:17:20 PM 49.4000 -67.5000 222° Southwest 430 495 34,000  Level Montreal Center
Thu 09:18:20 PM 49.3167 -67.6500 230° Southwest 430 495 34,000  Level Montreal Center
Thu 09:19:20 PM 49.2167 -67.7667 217° Southwest 430 495 34,000  Level Montreal Center
Thu 09:20:20 PM 49.1500 -67.8833 229° Southwest 430 495 34,000 350 Level Montreal Center
Thu 09:21:20 PM 49.0500 -68.0000 217° Southwest 430 495 34,700 950 Climbing Montreal Center
Thu 09:22:20 PM 48.9500 -68.1167 217° Southwest 430 495 35,900 650 Climbing Montreal Center
Thu 09:23:20 PM 48.8667 -68.2667 230° Southwest 420 483 36,000 50 Climbing Montreal Center
Thu 09:24:20 PM 48.7833 -68.3833 223° Southwest 430 495 36,000  Level Montreal Center
Thu 09:25:20 PM 48.7000 -68.5000 223° Southwest 430 495 36,000  Level Montreal Center
Thu 09:26:20 PM 48.6000 -68.6333 221° Southwest 430 495 36,000  Level Montreal Center
Thu 09:27:20 PM 48.5333 -68.7500 229° Southwest 430 495 36,000  Level Montreal Center
Thu 09:32:32 PM 48.0810 -69.4230 229° Southwest 36,000  Level FlightAware ADS-B
Thu 09:33:36 PM 48.0070 -69.5580 231° Southwest 423 487 36,000  Level FlightAware ADS-B
Thu 09:34:13 PM 47.9530 -69.6580 231° Southwest 424 488 36,000  Level FlightAware ADS-B
Thu 09:35:08 PM 47.8890 -69.7760 231° Southwest 426 490 36,000  Level FlightAware ADS-B
Thu 09:36:03 PM 47.8620 -69.8240 230° Southwest 427 491 36,000  Level FlightAware ADS-B
Thu 09:37:01 PM 47.7510 -70.0240 231° Southwest 428 493 36,000  Level FlightAware ADS-B
Thu 09:37:38 PM 47.7110 -70.0950 230° Southwest 428 493 36,000  Level FlightAware ADS-B
Thu 09:38:19 PM 47.6530 -70.2030 231° Southwest 429 494 36,000  Level FlightAware ADS-B
Thu 09:39:03 PM 47.5920 -70.3130 231° Southwest 430 495 36,000  Level FlightAware ADS-B
Thu 09:40:02 PM 47.5160 -70.4480 230° Southwest 429 494 36,000  Level FlightAware ADS-B
Thu 09:40:39 PM 47.4730 -70.5240 230° Southwest 429 494 36,000 -63 Level FlightAware ADS-B
Thu 09:41:38 PM 47.3940 -70.6630 230° Southwest 429 494 35,900  Descending FlightAware ADS-B
Thu 09:42:17 PM 47.3450 -70.7490 230° Southwest 428 493 36,000 71 Climbing FlightAware ADS-B
Thu 09:43:03 PM 47.2840 -70.8560 230° Southwest 428 493 36,000  Level FlightAware ADS-B
Thu 09:43:53 PM 47.2210 -70.9670 230° Southwest 428 493 36,000  Level FlightAware ADS-B
Thu 09:44:38 PM 47.1660 -71.0640 230° Southwest 428 493 36,000  Level FlightAware ADS-B
Thu 09:45:20 PM 47.1120 -71.1560 229° Southwest 429 494 36,000  Level FlightAware ADS-B
Thu 09:46:00 PM 47.0600 -71.2480 230° Southwest 428 493 36,000  Level FlightAware ADS-B
Thu 09:46:41 PM 47.0050 -71.3420 229° Southwest 429 494 36,000  Level FlightAware ADS-B
Thu 09:47:22 PM 46.9560 -71.4260 229° Southwest 431 496 36,000  Level FlightAware ADS-B
Thu 09:48:03 PM 46.9050 -71.5140 230° Southwest 432 497 36,000  Level FlightAware ADS-B
Thu 09:48:53 PM 46.8390 -71.6270 230° Southwest 434 499 36,000  Level FlightAware ADS-B
Thu 09:49:33 PM 46.7830 -71.7220 229° Southwest 436 502 36,000  Level FlightAware ADS-B
Thu 09:50:18 PM 46.7230 -71.8240 229° Southwest 437 503 36,000  Level FlightAware ADS-B
Thu 09:50:55 PM 46.6770 -71.9020 229° Southwest 433 498 36,000  Level FlightAware ADS-B
Thu 09:51:55 PM 46.5980 -72.0350 229° Southwest 440 506 36,000  Level FlightAware ADS-B
Thu 09:52:42 PM 46.5340 -72.1410 229° Southwest 441 507 36,000  Level FlightAware ADS-B
Thu 09:53:21 PM 46.4810 -72.2290 229° Southwest 440 506 36,000  Level FlightAware ADS-B
Thu 09:54:06 PM 46.4220 -72.3270 229° Southwest 438 504 36,000  Level FlightAware ADS-B
Thu 09:54:46 PM 46.3660 -72.4190 229° Southwest 437 503 36,000  Level FlightAware ADS-B
Thu 09:55:31 PM 46.3090 -72.5140 229° Southwest 431 496 36,000  Level FlightAware ADS-B
Thu 09:56:12 PM 46.2550 -72.6040 229° Southwest 430 495 36,000  Level FlightAware ADS-B
Thu 09:56:57 PM 46.1940 -72.7040 229° Southwest 435 501 36,000  Level FlightAware ADS-B
Thu 09:57:32 PM 46.1480 -72.7790 228° Southwest 435 501 36,000  Level FlightAware ADS-B
Thu 09:58:13 PM 46.0950 -72.8660 229° Southwest 437 503 36,000  Level FlightAware ADS-B
Thu 09:58:52 PM 46.0410 -72.9540 229° Southwest 437 503 36,000  Level FlightAware ADS-B
Thu 09:59:44 PM 45.9810 -73.0490 228° Southwest 437 503 36,000  Level FlightAware ADS-B
Thu 09:59:54 PM 45.9690 -73.0670 226° Southwest 437 503 36,000  Level FlightAware ADS-B
Thu 10:01:58 PM 45.7860 -73.3630 229° Southwest 444 511 36,000  Level FlightAware ADS-B
Thu 10:02:40 PM 45.7290 -73.4550 228° Southwest 446 513 36,000  Level FlightAware ADS-B
Thu 10:03:20 PM 45.6740 -73.5430 228° Southwest 446 513 36,000  Level FlightAware ADS-B
Thu 10:04:05 PM 45.6130 -73.6400 228° Southwest 448 516 36,000  Level FlightAware ADS-B
Thu 10:04:46 PM 45.5550 -73.7300 227° Southwest 448 516 36,000  Level FlightAware ADS-B
Thu 10:05:30 PM 45.4940 -73.8280 228° Southwest 447 514 36,000  Level FlightAware ADS-B
Thu 10:06:10 PM 45.4380 -73.9140 227° Southwest 448 516 36,000  Level FlightAware ADS-B
Thu 10:06:54 PM 45.3780 -74.0090 228° Southwest 447 514 36,000  Level FlightAware ADS-B
Thu 10:07:38 PM 45.3170 -74.1050 228° Southwest 448 516 36,000  Level FlightAware ADS-B
Thu 10:08:17 PM 45.2620 -74.1900 227° Southwest 449 517 36,000  Level FlightAware ADS-B
Thu 10:09:01 PM 45.2000 -74.2850 227° Southwest 450 518 36,000  Level FlightAware ADS-B
Thu 10:09:41 PM 45.1430 -74.3730 227° Southwest 452 520 36,000  Level FlightAware ADS-B
Thu 10:10:21 PM 45.0880 -74.4580 228° Southwest 455 524 36,000  Level FlightAware ADS-B
Thu 10:10:57 PM 45.0350 -74.5390 227° Southwest 455 524 36,000  Level FlightAware ADS-B
Thu 10:13:31 PM 44.8370 -74.8350 227° Southwest 460 529 36,000  Level FlightAware ADS-B
Thu 10:14:10 PM 44.7550 -74.9510 225° Southwest 458 527 36,000 -76 Level FlightAware ADS-B
Thu 10:14:50 PM 44.6950 -75.0350 225° Southwest 458 527 35,900  Descending FlightAware ADS-B
Thu 10:15:35 PM 44.6270 -75.1310 225° Southwest 458 527 36,000 70 Climbing FlightAware ADS-B
Thu 10:16:16 PM 44.5680 -75.2140 225° Southwest 458 527 36,000  Level FlightAware ADS-B
Thu 10:17:01 PM 44.5010 -75.3090 225° Southwest 460 529 36,000  Level FlightAware ADS-B
Thu 10:17:40 PM 44.4410 -75.3920 225° Southwest 456 525 36,000  Level FlightAware ADS-B
Thu 10:18:18 PM 44.3880 -75.4650 225° Southwest 456 525 36,000  Level FlightAware ADS-B
Thu 10:19:00 PM 44.3220 -75.5570 225° Southwest 461 531 36,000  Level FlightAware ADS-B
Thu 10:19:40 PM 44.2640 -75.6370 225° Southwest 462 532 36,000  Level FlightAware ADS-B
Thu 10:20:20 PM 44.2010 -75.7250 225° Southwest 463 533 36,000  Level FlightAware ADS-B
Thu 10:21:00 PM 44.1400 -75.8090 225° Southwest 462 532 36,000  Level FlightAware ADS-B
Thu 10:21:40 PM 44.0800 -75.8910 224° Southwest 463 533 36,000  Level FlightAware ADS-B
Thu 10:22:20 PM 44.0230 -75.9690 225° Southwest 463 533 36,000  Level FlightAware ADS-B
Thu 10:23:00 PM 43.9570 -76.0600 225° Southwest 459 528 36,000  Level FlightAware ADS-B
Thu 10:23:45 PM 43.9010 -76.1590 232° Southwest 455 524 36,000  Level FlightAware ADS-B
Thu 10:24:25 PM 43.8480 -76.2550 233° Southwest 454 522 36,000 -71 Level FlightAware ADS-B
Thu 10:25:10 PM 43.7960 -76.3490 233° Southwest 453 521 35,900  Descending FlightAware ADS-B
Thu 10:25:45 PM 43.7460 -76.4400 233° Southwest 454 522 36,000 80 Climbing FlightAware ADS-B
Thu 10:26:25 PM 43.6960 -76.5290 232° Southwest 459 528 36,000  Level FlightAware ADS-B
Thu 10:27:05 PM 43.6450 -76.6200 232° Southwest 464 534 36,000  Level FlightAware ADS-B
Thu 10:27:45 PM 43.5910 -76.7180 233° Southwest 468 539 36,000  Level FlightAware ADS-B
Thu 10:28:25 PM 43.5390 -76.8110 232° Southwest 469 540 36,000  Level FlightAware ADS-B
Thu 10:29:05 PM 43.4860 -76.9050 232° Southwest 469 540 36,000  Level FlightAware ADS-B
Thu 10:29:50 PM 43.4250 -77.0140 232° Southwest 470 541 36,000  Level FlightAware ADS-B
Thu 10:30:30 PM 43.3720 -77.1060 232° Southwest 469 540 36,000  Level FlightAware ADS-B
Thu 10:31:10 PM 43.3190 -77.1990 232° Southwest 470 541 36,000  Level FlightAware ADS-B
Thu 10:31:55 PM 43.2610 -77.3020 232° Southwest 469 540 36,000  Level FlightAware ADS-B
Thu 10:32:30 PM 43.2120 -77.3860 231° Southwest 470 541 36,000  Level FlightAware ADS-B
Thu 10:33:10 PM 43.1580 -77.4810 232° Southwest 470 541 36,000  Level FlightAware ADS-B
Thu 10:33:55 PM 43.0980 -77.5860 232° Southwest 469 540 36,000  Level FlightAware ADS-B
Thu 10:34:30 PM 43.0500 -77.6680 231° Southwest 469 540 36,000  Level FlightAware ADS-B
Thu 10:35:10 PM 42.9960 -77.7620 232° Southwest 470 541 36,000  Level FlightAware ADS-B
Thu 10:35:50 PM 42.9430 -77.8540 232° Southwest 469 540 36,000  Level FlightAware ADS-B
Thu 10:36:35 PM 42.8810 -77.9600 231° Southwest 470 541 36,000  Level FlightAware ADS-B
Thu 10:37:15 PM 42.8270 -78.0520 231° Southwest 470 541 36,000  Level FlightAware ADS-B
Thu 10:38:00 PM 42.7670 -78.1540 231° Southwest 469 540 36,000  Level FlightAware ADS-B
Thu 10:38:40 PM 42.7130 -78.2460 231° Southwest 470 541 36,000  Level FlightAware ADS-B
Thu 10:39:25 PM 42.6510 -78.3510 231° Southwest 470 541 36,000  Level FlightAware ADS-B
Thu 10:40:05 PM 42.5990 -78.4390 231° Southwest 470 541 36,000  Level FlightAware ADS-B
Thu 10:40:51 PM 42.5360 -78.5450 231° Southwest 469 540 36,000  Level FlightAware ADS-B
Thu 10:41:30 PM 42.4820 -78.6360 231° Southwest 467 537 36,000  Level FlightAware ADS-B
Thu 10:42:15 PM 42.4200 -78.7390 231° Southwest 466 536 36,000  Level FlightAware ADS-B
Thu 10:42:55 PM 42.3660 -78.8280 231° Southwest 467 537 36,000  Level FlightAware ADS-B
Thu 10:43:30 PM 42.3180 -78.9080 231° Southwest 465 535 36,000  Level FlightAware ADS-B
Thu 10:44:10 PM 42.2650 -78.9960 231° Southwest 464 534 36,000  Level FlightAware ADS-B
Thu 10:44:55 PM 42.2050 -79.1010 232° Southwest 462 532 36,000  Level FlightAware ADS-B
Thu 10:45:30 PM 42.1610 -79.1810 233° Southwest 461 531 36,000  Level FlightAware ADS-B
Thu 10:46:10 PM 42.1100 -79.2730 233° Southwest 461 531 36,000  Level FlightAware ADS-B
Thu 10:46:55 PM 42.0520 -79.3760 233° Southwest 462 532 36,000  Level FlightAware ADS-B
Thu 10:47:35 PM 42.0000 -79.4670 232° Southwest 463 533 36,000  Level FlightAware ADS-B
Thu 10:48:15 PM 41.9490 -79.5580 233° Southwest 465 535 36,000 71 Level FlightAware ADS-B
Thu 10:49:00 PM 41.8920 -79.6590 233° Southwest 468 539 36,100 71 Climbing FlightAware ADS-B
Thu 10:49:40 PM 41.8380 -79.7540 233° Southwest 471 542 36,100 -74 Level FlightAware ADS-B
Thu 10:50:21 PM 41.7900 -79.8400 233° Southwest 471 542 36,000 -80 Descending FlightAware ADS-B
Thu 10:50:55 PM 41.7380 -79.9300 232° Southwest 471 542 36,000  Level FlightAware ADS-B
Thu 10:51:40 PM 41.6780 -80.0350 233° Southwest 471 542 36,000  Level FlightAware ADS-B
Thu 10:52:15 PM 41.6350 -80.1110 233° Southwest 472 543 36,000  Level FlightAware ADS-B
Thu 10:53:00 PM 41.5720 -80.2190 232° Southwest 472 543 36,000  Level FlightAware ADS-B
Thu 10:53:45 PM 41.5120 -80.3230 232° Southwest 471 542 36,000  Level FlightAware ADS-B
Thu 10:54:28 PM 41.4520 -80.4280 233° Southwest 470 541 36,000  Level FlightAware ADS-B
Thu 10:55:11 PM 41.3940 -80.5260 232° Southwest 470 541 36,000  Level FlightAware ADS-B
Thu 10:55:44 PM 41.3500 -80.6020 232° Southwest 470 541 36,000 -78 Level FlightAware ADS-B
Thu 10:56:28 PM 41.2910 -80.7030 232° Southwest 469 540 35,900  Descending FlightAware ADS-B
Thu 10:57:09 PM 41.2380 -80.7940 232° Southwest 470 541 36,000 79 Climbing FlightAware ADS-B
Thu 10:57:44 PM 41.1900 -80.8740 231° Southwest 470 541 36,000  Level FlightAware ADS-B
Thu 10:58:29 PM 41.1310 -80.9740 232° Southwest 472 543 36,000  Level FlightAware ADS-B
Thu 10:59:09 PM 41.0760 -81.0670 232° Southwest 472 543 36,000  Level FlightAware ADS-B
Thu 10:59:53 PM 41.0170 -81.1670 232° Southwest 472 543 36,000 71 Level FlightAware ADS-B
Thu 11:00:33 PM 40.9650 -81.2610 234° Southwest 472 543 36,100  Climbing FlightAware ADS-B
Thu 11:01:16 PM 40.9110 -81.3630 235° Southwest 471 542 36,000 -72 Descending FlightAware ADS-B
Thu 11:01:56 PM 40.8610 -81.4580 235° Southwest 471 542 36,000  Level FlightAware ADS-B
Thu 11:02:33 PM 40.8150 -81.5430 234° Southwest 469 540 36,000  Level FlightAware ADS-B
Thu 11:03:13 PM 40.7650 -81.6350 234° Southwest 469 540 36,000 -71 Level FlightAware ADS-B
Thu 11:03:58 PM 40.7070 -81.7410 234° Southwest 467 537 35,900  Descending FlightAware ADS-B
Thu 11:04:29 PM 40.6690 -81.8120 235° Southwest 467 537 36,000 79 Climbing FlightAware ADS-B
Thu 11:05:14 PM 40.6110 -81.9170 234° Southwest 469 540 36,000  Level FlightAware ADS-B
Thu 11:05:53 PM 40.5620 -82.0060 234° Southwest 469 540 36,000  Level FlightAware ADS-B
Thu 11:06:37 PM 40.5060 -82.1070 234° Southwest 470 541 36,000  Level FlightAware ADS-B
Thu 11:07:17 PM 40.4560 -82.1990 234° Southwest 469 540 36,000  Level FlightAware ADS-B
Thu 11:08:02 PM 40.3980 -82.3040 234° Southwest 469 540 36,000  Level FlightAware ADS-B
Thu 11:08:42 PM 40.3470 -82.3960 234° Southwest 469 540 36,000  Level FlightAware ADS-B
Thu 11:09:21 PM 40.2980 -82.4830 234° Southwest 467 537 36,000  Level FlightAware ADS-B
Thu 11:10:02 PM 40.2450 -82.5790 234° Southwest 466 536 36,000  Level FlightAware ADS-B
Thu 11:10:41 PM 40.1960 -82.6660 234° Southwest 465 535 36,000  Level FlightAware ADS-B
Thu 11:13:34 PM 40.0220 -82.9790 234° Southwest 460 529 36,000  Level FlightAware ADS-B
Thu 11:14:19 PM 39.9280 -83.1420 233° Southwest 458 527 36,000  Level FlightAware ADS-B
Thu 11:15:01 PM 39.8690 -83.2430 233° Southwest 460 529 36,000  Level FlightAware ADS-B
Thu 11:15:45 PM 39.8130 -83.3410 233° Southwest 462 532 36,000 -429 Level FlightAware ADS-B
Thu 11:16:25 PM 39.7620 -83.4310 234° Southwest 464 534 35,400 -1,714 Descending FlightAware ADS-B
Thu 11:17:09 PM 39.7070 -83.5280 234° Southwest 469 540 33,600 -2,857 Descending FlightAware ADS-B
Thu 11:17:49 PM 39.6540 -83.6190 233° Southwest 479 551 31,400 -2,700 Descending FlightAware ADS-B
Thu 11:18:29 PM 39.6000 -83.7130 233° Southwest 474 545 30,000 -1,214 Descending FlightAware ADS-B
Thu 11:19:13 PM 39.5410 -83.8120 232° Southwest 477 549 29,700 -643 Descending FlightAware ADS-B
Thu 11:19:53 PM 39.4890 -83.9030 234° Southwest 467 537 29,100 -929 Descending FlightAware ADS-B
Thu 11:20:37 PM 39.4340 -83.9970 233° Southwest 464 534 28,400 -1,000 Descending FlightAware ADS-B
Thu 11:21:17 PM 39.3810 -84.0880 233° Southwest 461 531 27,700 -1,000 Descending FlightAware ADS-B
Thu 11:22:01 PM 39.3240 -84.1850 233° Southwest 456 525 27,000 -1,129 Descending FlightAware ADS-B
Thu 11:22:42 PM 39.2730 -84.2700 232° Southwest 449 517 26,100 -978 Descending FlightAware ADS-B
Thu 11:23:33 PM 39.2060 -84.3590 226° Southwest 446 513 25,500 -364 Descending FlightAware ADS-B
Thu 11:24:21 PM 39.1460 -84.4360 225° Southwest 446 513 25,500  Level FlightAware ADS-B
Thu 11:24:57 PM 39.1010 -84.4930 225° Southwest 446 513 25,500 -2,543 Level FlightAware ADS-B
Thu 11:25:53 PM 39.0100 -84.6220 228° Southwest 427 491 21,600 -3,300 Descending FlightAware ADS-B
Thu 11:26:37 PM 38.9510 -84.6980 225° Southwest 418 481 20,000 -923 Descending FlightAware ADS-B
Thu 11:27:37 PM 38.8810 -84.7880 225° Southwest 418 481 20,000  Level FlightAware ADS-B
Thu 11:28:25 PM 38.8250 -84.8590 225° Southwest 418 481 20,000 -2,438 Level FlightAware ADS-B
Thu 11:30:49 PM 38.6290 -85.0800 221° Southwest 357 411 12,200 -2,600 Descending FlightAware ADS-B
Thu 11:31:25 PM 38.5890 -85.1200 218° Southwest 357 411 12,200 -293 Level FlightAware ADS-B
Thu 11:32:11 PM 38.5260 -85.1770 215° Southwest 292 336 11,800 -293 Descending FlightAware ADS-B
Thu 11:32:47 PM 38.4880 -85.2130 217° Southwest 293 337 11,800  Level FlightAware ADS-B
Thu 11:33:29 PM 38.4400 -85.2590 217° Southwest 294 338 11,800 -255 Level FlightAware ADS-B
Thu 11:34:21 PM 38.3850 -85.3110 217° Southwest 291 335 11,400 -886 Descending FlightAware ADS-B
Thu 11:34:57 PM 38.3460 -85.3480 217° Southwest 287 330 10,500 -1,594 Descending FlightAware ADS-B
Thu 11:35:25 PM 38.3160 -85.3770 217° Southwest 288 331 9,700 -1,500 Descending FlightAware ADS-B
Thu 11:35:53 PM 38.2860 -85.4050 216° Southwest 285 328 9,100 -1,368 Descending FlightAware ADS-B
Thu 11:36:22 PM 38.2570 -85.4330 217° Southwest 282 325 8,400 -1,579 Descending FlightAware ADS-B
Thu 11:36:50 PM 38.2330 -85.4700 230° Southwest 284 327 7,600 -1,527 Descending FlightAware ADS-B
Thu 11:37:17 PM 38.2250 -85.5140 257° West 279 321 7,000 -1,418 Descending FlightAware ADS-B
Thu 11:37:45 PM 38.2150 -85.5580 254° West 277 319 6,300 -1,474 Descending FlightAware ADS-B
Thu 11:38:14 PM 38.1990 -85.5980 243° Southwest 274 315 5,600 -1,467 Descending FlightAware ADS-B
Thu 11:38:30 PM 38.1810 -85.6100 208° Southwest 272 313 5,200 -1,440 Descending FlightAware ADS-B
Thu 11:38:39 PM 38.1700 -85.6120 188° South 271 312 5,000 -1,350 Descending FlightAware ADS-B
Thu 11:39:10 PM 38.1330 -85.6010 167° South 268 308 4,300 -1,222 Descending FlightAware ADS-B
Thu 11:39:33 PM 38.1050 -85.5920 166° South 261 300 3,900 -490 Descending FlightAware ADS-B
Thu 11:39:59 PM 38.0760 -85.5840 168° South 232 267 3,900  Level FlightAware ADS-B
Thu 11:40:27 PM 38.0490 -85.5760 167° South 202 232 3,900  Level FlightAware ADS-B
Thu 11:40:55 PM 38.0230 -85.5670 165° South 203 234 3,900  Level FlightAware ADS-B
Thu 11:41:11 PM 38.0080 -85.5630 168° South 203 234 3,900  Level FlightAware ADS-B
Thu 11:41:31 PM 37.9900 -85.5570 165° South 203 234 3,900 -625 Level FlightAware ADS-B
Thu 11:41:59 PM 37.9650 -85.5500 168° South 201 231 3,400 -1,132 Descending FlightAware ADS-B
Thu 11:42:24 PM 37.9480 -85.5630 211° Southwest 202 232 2,900 -857 Descending FlightAware ADS-B
Thu 11:42:34 PM 37.9450 -85.5760 254° West 204 235 2,900  Level FlightAware ADS-B
Thu 11:42:54 PM 37.9510 -85.5970 290° West 207 238 2,900  Level FlightAware ADS-B
Thu 11:43:09 PM 37.9610 -85.6100 314° West 207 238 2,900  Level FlightAware ADS-B
Thu 11:43:29 PM 37.9750 -85.6260 318° Northwest 207 238 2,900  Level FlightAware ADS-B
Thu 11:43:55 PM 37.9920 -85.6460 317° Northwest 195 224 2,900 -222 Level FlightAware ADS-B
Thu 11:44:23 PM 38.0120 -85.6690 318° Northwest 194 223 2,700 -273 Descending FlightAware ADS-B
Thu 11:44:39 PM 38.0250 -85.6750 340° North 185 213 2,700 -261 Level FlightAware ADS-B
Thu 11:45:09 PM 38.0480 -85.6840 343° North 178 205 2,500 -436 Descending FlightAware ADS-B
Thu 11:45:34 PM 38.0660 -85.6900 345° North 172 198 2,300 -750 Descending FlightAware ADS-B
Thu 11:46:05 PM 38.0930 -85.6990 345° North 170 196 1,800 -900 Descending FlightAware ADS-B
Thu 11:46:34 PM 38.1140 -85.7060 345° North 166 191 1,400 -857 Descending FlightAware ADS-B
Thu 11:47:01 PM 38.1350 -85.7130 345° North 169 194 1,000 -906 Descending FlightAware ADS-B
Thu 11:47:27 PM 38.1540 -85.7200 344° North 164 189 600 -923 Descending FlightAware ADS-B
Thu 11:48:09 PM 38.1810 -85.7290 345° North 70 81 -857 Descending FlightAware ADS-B
Thu 11:48:40 PM 38.1860 -85.7320 335° Northwest 35 40  Level FlightAware ADS-B
Thu 11:49:13 PM 38.1830 -85.7330 195° South 28 32  Level FlightAware ADS-B
Thu 11:49:44 PM 38.1810 -85.7360 230° Southwest 32 37  Level FlightAware ADS-B
Thu 11:50:27 PM 38.1770 -85.7330 149° Southeast 31 36  Level FlightAware ADS-B
Thu 11:51:16 PM 38.1790 -85.7390 293° West 29 33  Level FlightAware ADS-B
Thu 11:51:47 PM 38.1800 -85.7440 284° West 16 18  Level FlightAware ADS-B
Thu 11:52:15 PM 38.1780 -85.7430 159° South 22 25  Level FlightAware ADS-B
Thu 11:52:41 PM 38.1750 -85.7420 165° South 26 30  Level FlightAware ADS-B
Thu 11:53:11 PM 38.1710 -85.7410 169° South 26 30  Level FlightAware ADS-B
Thu 11:53:31 PM 38.1690 -85.7400 159° South 25 29  Level FlightAware ADS-B
Thu 11:53:47 PM 38.1670 -85.7400 180° South 25 29  Level FlightAware ADS-B

Login

Don't have an account? Register now (free) for customized features, flight alerts, and more!